createdAt,value
2018-06-22T00:01:46.663Z,21.40
2018-06-22T00:04:50.560Z,21.50
2018-06-22T00:07:56.255Z,21.60
2018-06-22T00:11:00.733Z,21.60
2018-06-22T00:14:05.117Z,21.60
2018-06-22T00:17:09.454Z,21.60
2018-06-22T00:20:13.682Z,21.50
2018-06-22T00:23:18.282Z,21.50
2018-06-22T00:26:22.706Z,21.50
2018-06-22T00:29:27.101Z,21.50
2018-06-22T00:32:31.339Z,21.50
2018-06-22T00:35:35.854Z,21.50
2018-06-22T00:38:40.146Z,21.40
2018-06-22T00:41:44.758Z,21.40
2018-06-22T00:44:49.081Z,21.30
2018-06-22T00:47:53.968Z,21.30
2018-06-22T00:50:58.314Z,21.20
2018-06-22T00:54:13.258Z,21.20
2018-06-22T00:57:18.110Z,21.20
2018-06-22T01:00:22.471Z,21.30
2018-06-22T01:03:26.842Z,21.30
2018-06-22T01:06:31.126Z,21.20
2018-06-22T01:09:35.466Z,21.00
2018-06-22T01:12:39.612Z,21.00
2018-06-22T01:15:43.907Z,21.00
2018-06-22T01:18:47.954Z,21.00
2018-06-22T01:21:52.540Z,21.00
2018-06-22T01:24:56.814Z,21.00
2018-06-22T01:28:01.241Z,21.00
2018-06-22T01:31:05.730Z,21.00
2018-06-22T01:34:10.058Z,20.90
2018-06-22T01:37:14.358Z,20.90
2018-06-22T01:40:18.537Z,20.90
2018-06-22T01:43:23.002Z,20.90
2018-06-22T01:46:27.214Z,20.80
2018-06-22T01:49:31.515Z,20.80
2018-06-22T01:52:35.960Z,20.80
2018-06-22T01:55:40.102Z,20.80
2018-06-22T01:58:44.394Z,20.80
2018-06-22T02:01:48.756Z,20.70
2018-06-22T02:04:53.028Z,20.60
2018-06-22T02:07:57.374Z,20.60
2018-06-22T02:11:01.641Z,20.40
2018-06-22T02:14:05.996Z,20.40
2018-06-22T02:17:10.336Z,20.30
2018-06-22T02:20:14.554Z,20.20
2018-06-22T02:23:18.852Z,20.20
2018-06-22T02:26:23.182Z,20.20
2018-06-22T02:29:27.474Z,20.10
2018-06-22T02:32:31.828Z,20.20
2018-06-22T02:35:36.282Z,20.10
2018-06-22T02:38:40.605Z,20.10
2018-06-22T02:41:44.939Z,20.10
2018-06-22T02:44:49.265Z,20.00
2018-06-22T02:47:54.028Z,20.00
2018-06-22T02:50:58.501Z,20.00
2018-06-22T02:54:02.665Z,19.90
2018-06-22T02:57:06.806Z,20.00
2018-06-22T03:00:11.283Z,20.00
2018-06-22T03:03:15.559Z,20.00
2018-06-22T03:06:19.959Z,19.90
2018-06-22T03:09:24.087Z,19.90
2018-06-22T03:12:28.459Z,19.90
2018-06-22T03:15:32.725Z,19.90
2018-06-22T03:18:37.048Z,19.80
2018-06-22T03:21:41.254Z,19.80
2018-06-22T03:24:45.635Z,19.70
2018-06-22T03:27:49.942Z,19.50
2018-06-22T03:30:54.238Z,19.40
2018-06-22T03:33:58.586Z,19.30
2018-06-22T03:37:03.004Z,19.30
2018-06-22T03:40:07.503Z,19.30
2018-06-22T03:43:12.665Z,19.40
2018-06-22T03:46:16.899Z,19.40
2018-06-22T03:49:21.272Z,19.30
2018-06-22T03:52:25.523Z,19.20
2018-06-22T03:55:29.977Z,19.20
2018-06-22T03:58:34.198Z,19.00
2018-06-22T04:01:38.387Z,18.90
2018-06-22T04:04:42.743Z,18.90
2018-06-22T04:07:47.153Z,18.90
2018-06-22T04:10:51.612Z,18.90
2018-06-22T04:13:55.992Z,18.80
2018-06-22T04:17:00.334Z,18.70
2018-06-22T04:20:04.542Z,18.60
2018-06-22T04:23:08.984Z,18.40
2018-06-22T04:26:13.280Z,18.40
2018-06-22T04:29:18.844Z,18.30
2018-06-22T04:32:23.155Z,18.10
2018-06-22T04:35:27.338Z,17.90
2018-06-22T04:38:31.476Z,17.70
2018-06-22T04:41:35.877Z,17.60
2018-06-22T04:44:40.318Z,17.40
2018-06-22T04:47:44.649Z,17.40
2018-06-22T04:50:48.883Z,17.30
2018-06-22T04:53:53.130Z,17.30
2018-06-22T04:56:57.444Z,17.30
2018-06-22T05:00:01.929Z,17.20
2018-06-22T05:03:05.960Z,17.10
2018-06-22T05:06:10.095Z,17.20
2018-06-22T05:09:14.279Z,17.20
2018-06-22T05:12:18.771Z,17.00
2018-06-22T05:15:23.134Z,16.90
2018-06-22T05:18:27.611Z,16.90
2018-06-22T05:21:31.973Z,17.00
2018-06-22T05:24:36.418Z,17.20
2018-06-22T05:27:40.921Z,17.20
2018-06-22T05:30:45.226Z,17.30
2018-06-22T05:33:49.532Z,17.40
2018-06-22T05:36:53.946Z,17.40
2018-06-22T05:39:58.311Z,17.40
2018-06-22T05:43:02.620Z,17.50
2018-06-22T05:46:06.795Z,17.60
2018-06-22T05:49:11.119Z,17.70
2018-06-22T05:52:15.641Z,17.80
2018-06-22T05:55:19.973Z,17.80
2018-06-22T05:58:24.257Z,17.90
2018-06-22T06:01:28.478Z,18.00
2018-06-22T06:04:32.691Z,18.10
2018-06-22T06:07:37.122Z,18.20
2018-06-22T06:13:45.275Z,18.30
2018-06-22T06:16:49.745Z,18.20
2018-06-22T06:19:53.956Z,18.00
2018-06-22T06:22:58.393Z,18.00
2018-06-22T06:26:02.799Z,18.10
2018-06-22T06:29:07.026Z,18.10
2018-06-22T06:32:11.289Z,18.10
2018-06-22T06:35:15.730Z,18.00
2018-06-22T06:38:20.129Z,18.00
2018-06-22T06:41:24.537Z,18.00
2018-06-22T06:44:29.245Z,18.00
2018-06-22T06:47:33.850Z,17.90
2018-06-22T06:50:38.363Z,17.90
2018-06-22T06:53:42.833Z,17.80
2018-06-22T06:56:47.118Z,17.70
2018-06-22T06:59:51.542Z,17.60
2018-06-22T07:02:56.395Z,17.60
2018-06-22T07:06:00.621Z,17.60
2018-06-22T07:09:06.225Z,17.70
2018-06-22T07:12:11.180Z,17.70
2018-06-22T07:15:15.552Z,17.80
2018-06-22T07:18:19.745Z,17.80
2018-06-22T07:21:24.176Z,17.90
2018-06-22T07:24:28.514Z,17.80
2018-06-22T07:27:32.681Z,17.90
2018-06-22T07:30:37.020Z,17.90
2018-06-22T07:33:41.343Z,17.90
2018-06-22T07:36:45.718Z,17.80
2018-06-22T07:39:49.981Z,17.80
2018-06-22T07:42:54.486Z,17.40
2018-06-22T07:45:58.551Z,17.20
2018-06-22T07:49:02.951Z,17.20
2018-06-22T07:52:07.480Z,17.20
2018-06-22T07:55:11.745Z,17.30
2018-06-22T07:58:16.060Z,17.50
2018-06-22T08:01:20.367Z,17.60
2018-06-22T08:04:24.603Z,17.70
2018-06-22T08:07:29.006Z,17.80
2018-06-22T08:10:33.363Z,17.90
2018-06-22T08:13:37.678Z,17.90
2018-06-22T08:16:41.861Z,18.00
2018-06-22T08:19:46.195Z,18.00
2018-06-22T08:22:50.541Z,17.90
2018-06-22T08:25:54.930Z,17.80
2018-06-22T08:28:59.287Z,17.70
2018-06-22T08:32:03.585Z,17.50
2018-06-22T08:35:07.920Z,17.30
2018-06-22T08:38:12.250Z,17.40
2018-06-22T08:41:16.581Z,17.50
2018-06-22T08:44:20.898Z,17.60
2018-06-22T08:47:25.221Z,17.60
2018-06-22T08:50:29.561Z,17.30
2018-06-22T08:53:33.834Z,17.30
2018-06-22T08:56:38.315Z,17.10
2018-06-22T08:59:42.641Z,17.10
2018-06-22T09:02:47.096Z,17.10
2018-06-22T09:05:51.426Z,17.20
2018-06-22T09:08:55.930Z,17.20
2018-06-22T09:12:00.263Z,17.20
2018-06-22T09:15:04.595Z,17.30
2018-06-22T09:18:09.085Z,17.30
2018-06-22T09:21:13.334Z,17.30
2018-06-22T09:24:17.510Z,17.10
2018-06-22T09:27:21.900Z,17.20
2018-06-22T09:30:26.223Z,17.10
2018-06-22T09:33:30.566Z,17.00
2018-06-22T09:36:34.971Z,16.90
2018-06-22T09:39:39.197Z,16.80
2018-06-22T09:42:43.615Z,16.80
2018-06-22T09:45:47.860Z,16.80
2018-06-22T09:48:53.260Z,16.80
2018-06-22T09:51:58.143Z,16.90
2018-06-22T09:55:02.618Z,17.10
2018-06-22T09:58:06.755Z,17.40
2018-06-22T10:01:11.115Z,17.60
2018-06-22T10:04:15.407Z,17.80
2018-06-22T10:07:19.905Z,18.10
2018-06-22T10:10:24.258Z,18.40
2018-06-22T10:13:28.502Z,18.70
2018-06-22T10:16:32.877Z,18.90
2018-06-22T10:19:37.227Z,18.90
2018-06-22T10:22:41.626Z,19.10
2018-06-22T10:25:45.662Z,19.70
2018-06-22T10:28:49.970Z,20.00
2018-06-22T10:31:54.580Z,20.20
2018-06-22T10:34:58.914Z,20.20
2018-06-22T10:38:03.359Z,20.30
2018-06-22T10:41:07.719Z,20.00
2018-06-22T10:44:12.138Z,20.40
2018-06-22T10:47:16.607Z,20.40
2018-06-22T10:50:21.116Z,20.60
2018-06-22T10:53:25.756Z,20.60
2018-06-22T10:56:30.238Z,20.60
2018-06-22T10:59:34.642Z,20.40
2018-06-22T11:02:39.176Z,20.60
2018-06-22T11:05:43.786Z,20.20
2018-06-22T11:11:51.947Z,20.60
2018-06-22T11:14:56.310Z,20.50
2018-06-22T11:18:00.246Z,20.60
2018-06-22T11:21:04.491Z,20.90
2018-06-22T11:24:08.973Z,20.90
2018-06-22T11:27:13.267Z,20.80
2018-06-22T11:30:17.781Z,21.20
2018-06-22T11:33:22.134Z,21.50
2018-06-22T11:36:26.591Z,21.50
2018-06-22T11:39:31.075Z,21.60
2018-06-22T11:42:35.528Z,21.50
2018-06-22T11:45:40.057Z,21.50
2018-06-22T11:48:44.265Z,21.10
2018-06-22T11:51:48.718Z,21.20
2018-06-22T11:54:53.041Z,21.30
2018-06-22T11:57:57.450Z,21.50
2018-06-22T12:01:01.723Z,21.70
2018-06-22T12:04:06.189Z,21.40
2018-06-22T12:07:10.475Z,20.90
2018-06-22T12:10:14.808Z,20.90
2018-06-22T12:13:19.016Z,20.70
2018-06-22T12:16:23.306Z,20.40
2018-06-22T12:19:27.777Z,20.30
2018-06-22T12:22:31.989Z,20.30
2018-06-22T12:25:36.403Z,20.30
2018-06-22T12:28:40.619Z,20.40
2018-06-22T12:31:45.026Z,20.30
2018-06-22T12:34:50.320Z,19.90
2018-06-22T12:37:54.626Z,20.10
2018-06-22T12:40:59.050Z,20.10
2018-06-22T12:44:03.355Z,20.30
2018-06-22T12:47:07.706Z,20.30
2018-06-22T12:50:11.893Z,19.80
2018-06-22T12:53:16.243Z,19.60
2018-06-22T12:56:20.534Z,19.60
2018-06-22T12:59:24.857Z,20.00
2018-06-22T13:02:29.312Z,20.20
2018-06-22T13:05:34.662Z,20.40
2018-06-22T13:08:39.530Z,20.70
2018-06-22T13:11:43.920Z,20.60
2018-06-22T13:14:48.095Z,20.00
2018-06-22T13:17:52.502Z,19.60
2018-06-22T13:24:00.312Z,19.70
2018-06-22T13:27:04.789Z,19.90
2018-06-22T13:30:09.116Z,20.20
2018-06-22T13:33:13.805Z,20.50
2018-06-22T13:36:18.070Z,20.70
2018-06-22T13:39:22.254Z,20.90
2018-06-22T13:42:27.423Z,20.90
2018-06-22T13:45:31.665Z,21.10
2018-06-22T13:48:36.061Z,21.10
2018-06-22T13:51:40.175Z,21.30
2018-06-22T13:54:44.184Z,21.40
2018-06-22T13:57:48.087Z,21.30
2018-06-22T14:00:52.488Z,21.30
2018-06-22T14:04:01.713Z,21.10
2018-06-22T14:07:07.483Z,21.30
2018-06-22T14:10:11.685Z,21.80
2018-06-22T14:13:16.616Z,21.90
2018-06-22T14:16:21.017Z,21.90
2018-06-22T14:19:25.165Z,21.90
2018-06-22T14:22:29.571Z,21.70
2018-06-22T14:25:33.930Z,21.80
2018-06-22T14:28:38.242Z,21.80
2018-06-22T14:34:47.890Z,21.90
2018-06-22T14:37:52.196Z,21.40
2018-06-22T14:40:56.654Z,21.40
2018-06-22T14:44:01.025Z,21.40
2018-06-22T14:47:05.683Z,21.50
2018-06-22T14:50:15.279Z,21.30
2018-06-22T14:53:24.678Z,21.30
2018-06-22T14:56:34.337Z,21.40
2018-06-22T14:59:43.736Z,21.10
2018-06-22T15:02:53.942Z,21.10
2018-06-22T15:06:03.186Z,21.10
2018-06-22T15:09:09.261Z,21.30
2018-06-22T15:12:13.642Z,21.60
2018-06-22T15:15:17.909Z,21.50
2018-06-22T15:18:22.174Z,21.40
2018-06-22T15:21:26.453Z,21.00
2018-06-22T15:24:30.748Z,20.90
2018-06-22T15:27:35.093Z,20.70
2018-06-22T15:30:39.616Z,20.60
2018-06-22T15:33:49.030Z,20.70
2018-06-22T15:36:58.311Z,20.90
2018-06-22T15:40:07.931Z,20.80
2018-06-22T15:43:17.324Z,20.80
2018-06-22T15:46:26.691Z,21.00
2018-06-22T15:49:35.966Z,21.00
2018-06-22T15:52:45.531Z,20.80
2018-06-22T15:55:50.649Z,20.70
2018-06-22T15:58:54.941Z,20.70
2018-06-22T16:02:03.303Z,20.90
2018-06-22T16:05:07.617Z,21.10
2018-06-22T16:08:11.966Z,21.10
2018-06-22T16:11:16.399Z,21.00
2018-06-22T16:14:26.195Z,21.10
2018-06-22T16:17:35.827Z,21.10
2018-06-22T16:20:45.357Z,20.90
2018-06-22T16:23:54.864Z,20.60
2018-06-22T16:27:04.313Z,20.60
2018-06-22T16:30:09.402Z,20.60
2018-06-22T16:33:13.720Z,20.70
2018-06-22T16:36:17.972Z,20.80
2018-06-22T16:39:22.504Z,20.60
2018-06-22T16:42:26.461Z,20.60
2018-06-22T16:45:30.350Z,20.60
2018-06-22T16:48:34.320Z,20.60
2018-06-22T16:51:38.287Z,20.50
2018-06-22T16:54:42.510Z,20.40
2018-06-22T16:57:46.948Z,20.30
2018-06-22T17:00:51.281Z,20.20
2018-06-22T17:03:55.499Z,20.10
2018-06-22T17:07:04.889Z,20.00
2018-06-22T17:10:14.399Z,19.80
2018-06-22T17:13:23.625Z,19.70
2018-06-22T17:16:33.097Z,19.60
2018-06-22T17:19:37.434Z,19.60
2018-06-22T17:22:41.669Z,19.60
2018-06-22T17:25:46.167Z,19.60
2018-06-22T17:28:50.462Z,19.60
2018-06-22T17:31:55.066Z,19.50
2018-06-22T17:35:00.647Z,19.50
2018-06-22T17:38:05.110Z,19.40
2018-06-22T17:41:09.416Z,19.30
2018-06-22T17:44:13.671Z,19.20
2018-06-22T17:47:18.104Z,19.00
2018-06-22T17:50:27.437Z,19.00
2018-06-22T17:53:31.772Z,19.00
2018-06-22T17:56:35.995Z,18.90
2018-06-22T17:59:45.463Z,18.90
2018-06-22T18:02:55.057Z,18.80
2018-06-22T18:06:04.517Z,18.70
2018-06-22T18:09:10.223Z,18.70
2018-06-22T18:12:19.813Z,18.60
2018-06-22T18:15:24.215Z,18.60
2018-06-22T18:18:28.918Z,18.50
2018-06-22T18:21:33.207Z,18.40
2018-06-22T18:24:37.867Z,18.30
2018-06-22T18:27:42.379Z,18.10
2018-06-22T18:30:50.173Z,18.00
2018-06-22T18:33:54.521Z,17.90
2018-06-22T18:36:58.991Z,17.90
2018-06-22T18:40:03.512Z,17.80
2018-06-22T18:43:12.410Z,17.70
2018-06-22T18:46:16.866Z,17.60
2018-06-22T18:49:21.410Z,17.60
2018-06-22T18:52:31.030Z,17.50
2018-06-22T18:55:42.393Z,17.50
2018-06-22T18:58:51.970Z,17.40
2018-06-22T19:02:01.481Z,17.40
2018-06-22T19:05:06.066Z,17.30
2018-06-22T19:08:10.330Z,17.20
2018-06-22T19:11:14.811Z,17.10
2018-06-22T19:14:19.194Z,17.10
2018-06-22T19:17:23.679Z,17.20
2018-06-22T19:20:28.143Z,17.30
2018-06-22T19:23:32.271Z,17.40
2018-06-22T19:26:36.646Z,17.20
2018-06-22T19:29:41.960Z,17.00
2018-06-22T19:32:46.703Z,16.70
2018-06-22T19:35:51.502Z,16.50
2018-06-22T19:38:56.270Z,16.30
2018-06-22T19:42:01.217Z,16.10
2018-06-22T19:45:11.028Z,16.00
2018-06-22T19:48:20.588Z,15.90
2018-06-22T19:51:29.676Z,15.80
2018-06-22T19:54:33.897Z,15.80
2018-06-22T19:57:38.025Z,15.80
2018-06-22T20:00:42.345Z,15.70
2018-06-22T20:03:46.731Z,15.70
2018-06-22T20:06:50.911Z,15.70
2018-06-22T20:09:55.288Z,15.70
2018-06-22T20:13:01.472Z,15.70
2018-06-22T20:16:05.812Z,15.70
2018-06-22T20:19:11.116Z,15.70
2018-06-22T20:22:15.949Z,15.70
2018-06-22T20:25:25.733Z,15.70
2018-06-22T20:28:30.000Z,15.70
2018-06-22T20:31:39.608Z,15.70
2018-06-22T20:34:49.674Z,15.70
2018-06-22T20:37:59.531Z,15.70
2018-06-22T20:41:09.092Z,15.60
2018-06-22T20:44:18.402Z,15.60
2018-06-22T20:47:27.744Z,15.50
2018-06-22T20:50:33.775Z,15.50
2018-06-22T20:53:38.413Z,15.40
2018-06-22T20:56:42.850Z,15.40
2018-06-22T20:59:47.473Z,15.40
2018-06-22T21:02:51.981Z,15.40
2018-06-22T21:05:56.359Z,15.30
2018-06-22T21:09:00.973Z,15.30
2018-06-22T21:12:05.375Z,15.30
2018-06-22T21:15:09.728Z,15.30
2018-06-22T21:18:14.056Z,15.30
2018-06-22T21:21:23.795Z,15.30
2018-06-22T21:24:28.179Z,15.30
2018-06-22T21:27:37.550Z,15.20
2018-06-22T21:30:47.048Z,15.20
2018-06-22T21:33:56.514Z,15.10
2018-06-22T21:37:05.800Z,15.10
2018-06-22T21:40:10.060Z,15.10
2018-06-22T21:43:14.656Z,15.10
2018-06-22T21:46:18.932Z,15.10
2018-06-22T21:49:23.306Z,15.10
2018-06-22T21:52:27.623Z,15.10
2018-06-22T21:55:32.007Z,15.10
2018-06-22T21:58:36.497Z,15.10
2018-06-22T22:01:41.101Z,15.10
2018-06-22T22:04:45.537Z,15.20
2018-06-22T22:07:50.242Z,15.20
2018-06-22T22:11:00.019Z,15.10
2018-06-22T22:14:04.301Z,15.20
2018-06-22T22:17:08.747Z,15.20
2018-06-22T22:20:13.069Z,15.20
2018-06-22T22:23:17.423Z,15.20
2018-06-22T22:26:21.903Z,15.20
2018-06-22T22:29:26.265Z,15.20
2018-06-22T22:32:30.514Z,15.20
2018-06-22T22:35:34.605Z,15.30
2018-06-22T22:38:38.970Z,15.30
2018-06-22T22:41:43.153Z,15.30
2018-06-22T22:44:47.474Z,15.20
2018-06-22T22:47:51.787Z,15.20
2018-06-22T22:50:56.067Z,15.10
2018-06-22T22:54:00.411Z,15.10
2018-06-22T22:57:05.130Z,15.10
2018-06-22T23:00:09.304Z,15.10
2018-06-22T23:03:13.615Z,15.10
2018-06-22T23:06:17.912Z,15.20
2018-06-22T23:09:22.392Z,15.20
2018-06-22T23:12:33.203Z,15.10
2018-06-22T23:18:41.243Z,15.00
2018-06-22T23:21:45.559Z,14.90
2018-06-22T23:24:50.116Z,14.70
2018-06-22T23:27:54.472Z,14.70
2018-06-22T23:30:59.618Z,14.70
2018-06-22T23:34:03.811Z,14.60
2018-06-22T23:37:08.205Z,14.70
2018-06-22T23:40:12.451Z,14.60
2018-06-22T23:43:17.083Z,14.50
2018-06-22T23:46:21.313Z,14.50
2018-06-22T23:49:25.644Z,14.60
2018-06-22T23:52:29.935Z,14.50
2018-06-22T23:55:34.412Z,14.60
2018-06-22T23:58:38.729Z,14.50
